createdAt,value
2017-07-28T00:00:05.149Z,19.33
2017-07-28T00:01:05.139Z,19.25
2017-07-28T00:02:05.099Z,19.37
2017-07-28T00:03:05.047Z,19.37
2017-07-28T00:04:05.070Z,19.31
2017-07-28T00:05:05.020Z,19.31
2017-07-28T00:06:05.019Z,19.41
2017-07-28T00:07:05.043Z,19.4
2017-07-28T00:08:05.031Z,19.53
2017-07-28T00:09:04.991Z,19.37
2017-07-28T00:10:04.940Z,19.52
2017-07-28T00:11:04.939Z,19.52
2017-07-28T00:12:04.908Z,19.51
2017-07-28T00:13:04.597Z,19.49
2017-07-28T00:14:04.891Z,19.55
2017-07-28T00:15:04.871Z,19.53
2017-07-28T00:16:04.869Z,19.52
2017-07-28T00:17:04.850Z,19.56
2017-07-28T00:18:04.827Z,19.55
2017-07-28T00:19:04.797Z,19.52
2017-07-28T00:20:04.780Z,19.59
2017-07-28T00:21:04.813Z,19.52
2017-07-28T00:22:04.763Z,19.58
2017-07-28T00:23:04.771Z,19.55
2017-07-28T00:24:04.424Z,19.62
2017-07-28T00:25:04.717Z,19.51
2017-07-28T00:26:04.711Z,19.52
2017-07-28T00:27:04.367Z,19.55
2017-07-28T00:28:04.370Z,19.55
2017-07-28T00:29:04.344Z,19.48
2017-07-28T00:30:04.653Z,19.51
2017-07-28T00:31:04.315Z,19.55
2017-07-28T00:32:04.618Z,19.52
2017-07-28T00:33:04.292Z,19.48
2017-07-28T00:34:04.271Z,19.49
2017-07-28T00:35:04.262Z,19.51
2017-07-28T00:36:04.246Z,19.46
2017-07-28T00:37:04.237Z,19.41
2017-07-28T00:38:04.212Z,19.4
2017-07-28T00:39:04.199Z,19.4
2017-07-28T00:40:04.490Z,19.37
2017-07-28T00:41:04.168Z,19.38
2017-07-28T00:42:04.471Z,19.44
2017-07-28T00:43:04.469Z,19.44
2017-07-28T00:44:03.810Z,19.36
2017-07-28T00:45:04.420Z,19.38
2017-07-28T00:46:04.400Z,19.41
2017-07-28T00:47:04.381Z,19.37
2017-07-28T00:48:04.386Z,19.38
2017-07-28T00:49:04.351Z,19.51
2017-07-28T00:50:04.342Z,19.48
2017-07-28T00:51:04.320Z,19.43
2017-07-28T00:52:04.301Z,19.4
2017-07-28T00:53:03.694Z,19.4
2017-07-28T00:54:03.981Z,19.41
2017-07-28T00:55:03.951Z,19.44
2017-07-28T00:56:03.953Z,19.38
2017-07-28T00:57:03.931Z,19.38
2017-07-28T00:58:04.221Z,19.46
2017-07-28T00:59:03.896Z,19.23
2017-07-28T01:00:03.881Z,19.21
2017-07-28T01:01:04.169Z,19.19
2017-07-28T01:02:03.552Z,19.26
2017-07-28T01:03:03.838Z,19.19
2017-07-28T01:04:03.875Z,19.15
2017-07-28T01:05:03.805Z,19.15
2017-07-28T01:06:03.894Z,19.22
2017-07-28T01:07:03.801Z,19
2017-07-28T01:08:03.554Z,18.99
2017-07-28T01:09:03.760Z,19.04
2017-07-28T01:10:03.731Z,19.02
2017-07-28T01:11:03.722Z,18.97
2017-07-28T01:12:04.012Z,19.11
2017-07-28T01:13:03.993Z,19.11
2017-07-28T01:14:03.993Z,18.97
2017-07-28T01:15:03.971Z,19.04
2017-07-28T01:16:03.637Z,18.99
2017-07-28T01:17:03.323Z,18.97
2017-07-28T01:18:03.643Z,19.02
2017-07-28T01:19:03.910Z,18.96
2017-07-28T01:20:03.603Z,18.82
2017-07-28T01:21:03.579Z,18.9
2017-07-28T01:22:03.552Z,18.8
2017-07-28T01:23:03.587Z,18.78
2017-07-28T01:24:03.839Z,18.75
2017-07-28T01:25:03.816Z,18.77
2017-07-28T01:26:03.827Z,18.8
2017-07-28T01:27:03.784Z,18.66
2017-07-28T01:28:03.474Z,18.55
2017-07-28T01:29:03.140Z,18.42
2017-07-28T01:30:03.121Z,18.44
2017-07-28T01:31:03.442Z,18.23
2017-07-28T01:32:03.410Z,17.96
2017-07-28T01:33:03.488Z,18.04
2017-07-28T01:34:03.681Z,18.01
2017-07-28T01:35:03.040Z,18.18
2017-07-28T01:36:03.659Z,18.27
2017-07-28T01:37:03.666Z,18.1
2017-07-28T01:38:03.314Z,18.26
2017-07-28T01:39:03.680Z,18.26
2017-07-28T01:40:03.291Z,18.26
2017-07-28T01:41:03.256Z,18.37
2017-07-28T01:42:03.247Z,18.37
2017-07-28T01:43:03.541Z,18.35
2017-07-28T01:44:02.920Z,18.38
2017-07-28T01:45:03.544Z,18.41
2017-07-28T01:46:03.182Z,18.37
2017-07-28T01:47:03.170Z,18.38
2017-07-28T01:48:02.840Z,18.38
2017-07-28T01:49:02.829Z,18.48
2017-07-28T01:50:03.121Z,18.35
2017-07-28T01:51:03.111Z,18.23
2017-07-28T01:52:03.082Z,18.26
2017-07-28T01:53:03.153Z,18.29
2017-07-28T01:54:03.061Z,18.23
2017-07-28T01:55:03.052Z,18.3
2017-07-28T01:56:03.022Z,18.15
2017-07-28T01:57:03.052Z,18.01
2017-07-28T01:58:03.322Z,17.98
2017-07-28T01:59:02.670Z,18.15
2017-07-28T02:00:02.959Z,18.19
2017-07-28T02:01:02.942Z,18.2
2017-07-28T02:02:02.932Z,18.29
2017-07-28T02:03:02.930Z,18.27
2017-07-28T02:04:02.591Z,18.29
2017-07-28T02:05:03.191Z,18.22
2017-07-28T02:06:02.861Z,18.1
2017-07-28T02:07:03.171Z,18.1
2017-07-28T02:08:02.522Z,18.01
2017-07-28T02:09:03.122Z,17.87
2017-07-28T02:10:03.108Z,17.98
2017-07-28T02:11:03.081Z,18.01
2017-07-28T02:12:02.472Z,18.02
2017-07-28T02:13:03.073Z,18.1
2017-07-28T02:14:02.751Z,18.1
2017-07-28T02:15:02.724Z,18.19
2017-07-28T02:16:02.391Z,18.11
2017-07-28T02:17:02.701Z,17.98
2017-07-28T02:18:03.022Z,17.98
2017-07-28T02:19:02.657Z,17.86
2017-07-28T02:20:02.939Z,17.96
2017-07-28T02:21:02.630Z,17.98
2017-07-28T02:22:02.314Z,17.96
2017-07-28T02:23:02.586Z,18.12
2017-07-28T02:24:02.590Z,18.1
2017-07-28T02:25:02.562Z,18.07
2017-07-28T02:26:02.898Z,18.05
2017-07-28T02:27:02.838Z,17.95
2017-07-28T02:28:02.520Z,18
2017-07-28T02:29:02.524Z,17.8
2017-07-28T02:30:02.831Z,17.86
2017-07-28T02:31:02.801Z,17.83
2017-07-28T02:32:02.453Z,17.98
2017-07-28T02:33:02.432Z,17.98
2017-07-28T02:34:02.443Z,17.78
2017-07-28T02:35:02.406Z,17.77
2017-07-28T02:36:02.688Z,17.77
2017-07-28T02:37:02.687Z,17.7
2017-07-28T02:38:02.365Z,17.9
2017-07-28T02:39:02.651Z,17.8
2017-07-28T02:40:02.643Z,17.65
2017-07-28T02:41:02.613Z,17.67
2017-07-28T02:42:02.592Z,17.58
2017-07-28T02:43:02.594Z,17.6
2017-07-28T02:44:02.563Z,17.64
2017-07-28T02:45:02.569Z,17.7
2017-07-28T02:46:02.232Z,17.68
2017-07-28T02:47:02.512Z,17.64
2017-07-28T02:48:02.495Z,17.71
2017-07-28T02:49:02.507Z,17.7
2017-07-28T02:50:02.483Z,17.77
2017-07-28T02:51:02.473Z,17.71
2017-07-28T02:52:02.444Z,17.72
2017-07-28T02:53:02.118Z,17.65
2017-07-28T02:54:02.419Z,17.67
2017-07-28T02:55:02.403Z,17.64
2017-07-28T02:56:02.393Z,17.68
2017-07-28T02:57:02.373Z,17.7
2017-07-28T02:58:02.037Z,17.8
2017-07-28T02:59:02.322Z,17.68
2017-07-28T03:00:02.002Z,17.6
2017-07-28T03:01:01.682Z,17.56
2017-07-28T03:02:02.284Z,17.44
2017-07-28T03:03:02.281Z,17.42
2017-07-28T03:04:02.262Z,17.49
2017-07-28T03:05:02.006Z,17.4
2017-07-28T03:06:01.932Z,17.52
2017-07-28T03:07:02.199Z,17.58
2017-07-28T03:08:01.873Z,17.64
2017-07-28T03:09:02.013Z,17.62
2017-07-28T03:10:01.860Z,17.67
2017-07-28T03:11:02.152Z,17.64
2017-07-28T03:12:02.122Z,17.46
2017-07-28T03:13:01.794Z,17.39
2017-07-28T03:14:02.103Z,17.44
2017-07-28T03:15:02.059Z,17.45
2017-07-28T03:16:02.056Z,17.36
2017-07-28T03:17:02.031Z,17.33
2017-07-28T03:18:02.012Z,17.33
2017-07-28T03:19:02.007Z,17.33
2017-07-28T03:20:01.382Z,17.46
2017-07-28T03:21:01.752Z,17.3
2017-07-28T03:22:01.948Z,17.29
2017-07-28T03:23:01.962Z,17.3
2017-07-28T03:24:01.660Z,17.18
2017-07-28T03:25:01.901Z,17.19
2017-07-28T03:26:01.878Z,17.21
2017-07-28T03:27:01.260Z,17.21
2017-07-28T03:28:01.243Z,17.18
2017-07-28T03:29:01.531Z,17.11
2017-07-28T03:30:01.591Z,17.15
2017-07-28T03:31:01.821Z,17.09
2017-07-28T03:32:01.791Z,16.98
2017-07-28T03:33:01.250Z,17.08
2017-07-28T03:34:01.745Z,17.06
2017-07-28T03:35:01.430Z,17.19
2017-07-28T03:36:01.523Z,17.31
2017-07-28T03:37:01.410Z,17.39
2017-07-28T03:38:01.071Z,17.45
2017-07-28T03:39:01.670Z,17.45
2017-07-28T03:40:01.659Z,17.36
2017-07-28T03:41:01.332Z,17.3
2017-07-28T03:42:01.009Z,17.31
2017-07-28T03:43:01.040Z,17.3
2017-07-28T03:44:01.331Z,17.34
2017-07-28T03:45:01.580Z,17.31
2017-07-28T03:46:01.300Z,17.44
2017-07-28T03:47:01.540Z,17.45
2017-07-28T03:48:01.243Z,17.36
2017-07-28T03:49:01.216Z,17.42
2017-07-28T03:50:01.198Z,17.45
2017-07-28T03:51:01.479Z,17.42
2017-07-28T03:52:01.171Z,17.36
2017-07-28T03:53:01.496Z,17.48
2017-07-28T03:54:01.519Z,17.29
2017-07-28T03:55:01.411Z,17.24
2017-07-28T03:56:01.108Z,17.19
2017-07-28T03:57:01.411Z,17.31
2017-07-28T03:58:00.739Z,17.4
2017-07-28T03:59:00.736Z,17.37
2017-07-28T04:00:01.111Z,17.34
2017-07-28T04:01:01.021Z,17.46
2017-07-28T04:02:01.465Z,17.46
2017-07-28T04:03:01.280Z,17.33
2017-07-28T04:04:01.271Z,17.22
2017-07-28T04:05:01.249Z,17.21
2017-07-28T04:06:01.241Z,17.24
2017-07-28T04:07:01.210Z,17.33
2017-07-28T04:08:00.923Z,17.34
2017-07-28T04:09:01.181Z,17.34
2017-07-28T04:10:01.238Z,17.29
2017-07-28T04:11:01.150Z,17.27
2017-07-28T04:12:00.891Z,17.24
2017-07-28T04:13:00.812Z,17.19
2017-07-28T04:14:00.790Z,17.26
2017-07-28T04:15:01.086Z,17.46
2017-07-28T04:16:00.467Z,17.39
2017-07-28T04:17:01.051Z,17.31
2017-07-28T04:18:00.412Z,17.3
2017-07-28T04:19:00.703Z,17.45
2017-07-28T04:20:01.016Z,17.48
2017-07-28T04:21:01.056Z,17.48
2017-07-28T04:22:00.969Z,17.49
2017-07-28T04:23:00.636Z,17.46
2017-07-28T04:24:00.640Z,17.34
2017-07-28T04:25:00.920Z,17.44
2017-07-28T04:26:00.601Z,17.44
2017-07-28T04:27:00.272Z,17.44
2017-07-28T04:28:00.559Z,17.49
2017-07-28T04:29:00.857Z,17.49
2017-07-28T04:30:00.533Z,17.42
2017-07-28T04:31:00.200Z,17.33
2017-07-28T04:32:00.191Z,17.36
2017-07-28T04:33:00.851Z,17.4
2017-07-28T04:34:00.162Z,17.48
2017-07-28T04:35:00.448Z,17.33
2017-07-28T04:36:00.438Z,17.21
2017-07-28T04:37:00.412Z,17.26
2017-07-28T04:38:00.713Z,17.39
2017-07-28T04:39:00.380Z,17.33
2017-07-28T04:40:00.672Z,17.34
2017-07-28T04:41:00.339Z,17.31
2017-07-28T04:42:00.332Z,17.29
2017-07-28T04:43:00.315Z,17.21
2017-07-28T04:44:00.289Z,17.19
2017-07-28T04:45:00.579Z,17.33
2017-07-28T04:45:59.959Z,17.37
2017-07-28T04:47:00.262Z,17.48
2017-07-28T04:48:00.249Z,17.42
2017-07-28T04:49:00.221Z,17.4
2017-07-28T04:50:00.507Z,17.45
2017-07-28T04:51:00.231Z,17.45
2017-07-28T04:52:00.480Z,17.48
2017-07-28T04:53:00.171Z,17.55
2017-07-28T04:54:00.441Z,17.49
2017-07-28T04:55:00.171Z,17.48
2017-07-28T04:56:00.132Z,17.44
2017-07-28T04:57:00.411Z,17.48
2017-07-28T04:58:00.385Z,17.39
2017-07-28T04:59:00.060Z,17.46
2017-07-28T05:00:00.041Z,17.45
2017-07-28T05:01:00.074Z,17.42
2017-07-28T05:01:59.713Z,17.49
2017-07-28T05:03:00.300Z,17.51
2017-07-28T05:04:00.291Z,17.46
2017-07-28T05:05:00.345Z,17.49
2017-07-28T05:06:00.251Z,17.6
2017-07-28T05:07:00.252Z,17.64
2017-07-28T05:08:00.221Z,17.62
2017-07-28T05:09:00.209Z,17.62
2017-07-28T05:10:00.191Z,17.65
2017-07-28T05:10:59.862Z,17.45
2017-07-28T05:12:00.171Z,17.45
2017-07-28T05:13:00.141Z,17.46
2017-07-28T05:14:00.122Z,17.46
2017-07-28T05:15:00.101Z,17.44
2017-07-28T05:16:00.111Z,17.45
2017-07-28T05:17:00.074Z,17.49
2017-07-28T05:18:00.062Z,17.55
2017-07-28T05:18:59.419Z,17.52
2017-07-28T05:20:00.032Z,17.48
2017-07-28T05:21:00.024Z,17.48
2017-07-28T05:22:00.032Z,17.54
2017-07-28T05:22:59.984Z,17.55
2017-07-28T05:23:59.972Z,17.48
2017-07-28T05:24:59.961Z,17.51
2017-07-28T05:25:59.928Z,17.55
2017-07-28T05:26:59.913Z,17.42
2017-07-28T05:27:59.913Z,17.46
2017-07-28T05:28:59.871Z,17.55
2017-07-28T05:29:59.581Z,17.6
2017-07-28T05:30:59.541Z,17.58
2017-07-28T05:31:59.521Z,17.65
2017-07-28T05:32:59.541Z,17.64
2017-07-28T05:33:59.607Z,17.64
2017-07-28T05:34:59.780Z,17.67
2017-07-28T05:35:59.780Z,17.68
2017-07-28T05:36:59.432Z,17.83
2017-07-28T05:37:59.440Z,17.87
2017-07-28T05:38:59.720Z,17.77
2017-07-28T05:39:59.712Z,17.65
2017-07-28T05:40:59.690Z,17.72
2017-07-28T05:41:59.679Z,17.65
2017-07-28T05:42:59.662Z,17.67
2017-07-28T05:43:59.330Z,17.74
2017-07-28T05:44:59.622Z,17.67
2017-07-28T05:45:59.615Z,17.62
2017-07-28T05:46:59.604Z,17.65
2017-07-28T05:47:59.581Z,17.78
2017-07-28T05:48:59.551Z,17.85
2017-07-28T05:49:59.541Z,17.85
2017-07-28T05:50:59.532Z,17.92
2017-07-28T05:51:59.513Z,17.86
2017-07-28T05:52:59.280Z,17.87
2017-07-28T05:53:59.181Z,17.83
2017-07-28T05:54:59.462Z,17.85
2017-07-28T05:55:59.443Z,17.87
2017-07-28T05:56:59.461Z,17.85
2017-07-28T05:57:59.103Z,17.72
2017-07-28T05:58:59.390Z,17.7
2017-07-28T05:59:59.070Z,17.74
2017-07-28T06:00:59.067Z,17.8
2017-07-28T06:01:59.052Z,17.86
2017-07-28T06:02:59.091Z,17.77
2017-07-28T06:03:59.011Z,17.77
2017-07-28T06:04:58.994Z,17.8
2017-07-28T06:05:58.979Z,17.87
2017-07-28T06:06:58.954Z,18.05
2017-07-28T06:07:58.951Z,18.12
2017-07-28T06:08:59.259Z,18.18
2017-07-28T06:09:59.229Z,18.01
2017-07-28T06:10:59.221Z,17.89
2017-07-28T06:11:58.577Z,17.92
2017-07-28T06:12:59.181Z,17.92
2017-07-28T06:13:58.851Z,18.12
2017-07-28T06:14:59.141Z,18.05
2017-07-28T06:15:59.127Z,18.02
2017-07-28T06:16:59.110Z,18.05
2017-07-28T06:17:58.790Z,18.02
2017-07-28T06:18:58.779Z,18.02
2017-07-28T06:19:58.750Z,18.05
2017-07-28T06:20:59.091Z,18.04
2017-07-28T06:21:58.741Z,18.1
2017-07-28T06:22:59.011Z,18.12
2017-07-28T06:23:58.704Z,18.15
2017-07-28T06:24:58.382Z,18.1
2017-07-28T06:25:58.973Z,18.29
2017-07-28T06:26:58.961Z,18.32
2017-07-28T06:27:58.941Z,18.42
2017-07-28T06:28:58.927Z,18.42
2017-07-28T06:29:58.931Z,18.51
2017-07-28T06:30:58.279Z,18.56
2017-07-28T06:31:58.582Z,18.5
2017-07-28T06:32:58.861Z,18.4
2017-07-28T06:33:58.552Z,18.47
2017-07-28T06:34:58.543Z,18.48
2017-07-28T06:35:58.829Z,18.44
2017-07-28T06:36:58.821Z,18.7
2017-07-28T06:37:58.480Z,18.7
2017-07-28T06:38:58.781Z,18.73
2017-07-28T06:39:58.449Z,18.58
2017-07-28T06:40:58.448Z,18.41
2017-07-28T06:41:58.420Z,18.47
2017-07-28T06:42:58.718Z,18.44
2017-07-28T06:43:58.702Z,18.42
2017-07-28T06:44:58.380Z,18.42
2017-07-28T06:45:58.661Z,18.47
2017-07-28T06:46:58.350Z,18.65
2017-07-28T06:47:58.343Z,18.69
2017-07-28T06:48:58.631Z,18.73
2017-07-28T06:49:58.008Z,18.74
2017-07-28T06:50:58.292Z,18.78
2017-07-28T06:51:58.661Z,18.75
2017-07-28T06:52:58.259Z,18.75
2017-07-28T06:53:58.273Z,18.69
2017-07-28T06:54:58.539Z,18.47
2017-07-28T06:55:58.538Z,18.62
2017-07-28T06:56:57.891Z,18.56
2017-07-28T06:57:58.242Z,18.56
2017-07-28T06:58:58.169Z,18.42
2017-07-28T06:59:58.171Z,18.4
2017-07-28T07:00:58.460Z,18.35
2017-07-28T07:01:58.545Z,18.33
2017-07-28T07:02:58.421Z,18.26
2017-07-28T07:03:58.111Z,18.04
2017-07-28T07:04:58.101Z,18.04
2017-07-28T07:05:58.382Z,18.18
2017-07-28T07:06:58.360Z,18.11
2017-07-28T07:07:58.349Z,18.18
2017-07-28T07:08:58.319Z,18.33
2017-07-28T07:09:57.999Z,18.37
2017-07-28T07:10:57.990Z,18.41
2017-07-28T07:11:57.971Z,18.25
2017-07-28T07:12:58.362Z,18.38
2017-07-28T07:13:58.241Z,18.48
2017-07-28T07:14:58.310Z,18.4
2017-07-28T07:15:58.220Z,18.47
2017-07-28T07:16:57.587Z,18.48
2017-07-28T07:17:57.874Z,18.47
2017-07-28T07:18:57.870Z,18.51
2017-07-28T07:19:58.160Z,18.59
2017-07-28T07:20:57.631Z,18.63
2017-07-28T07:21:58.130Z,18.62
2017-07-28T07:22:57.810Z,18.62
2017-07-28T07:23:57.801Z,18.69
2017-07-28T07:24:57.791Z,18.92
2017-07-28T07:25:57.772Z,19.08
2017-07-28T07:26:58.091Z,19.07
2017-07-28T07:27:57.732Z,19.23
2017-07-28T07:28:57.719Z,19.22
2017-07-28T07:29:57.704Z,19.12
2017-07-28T07:30:57.687Z,18.96
2017-07-28T07:31:57.982Z,18.92
2017-07-28T07:32:57.393Z,18.92
2017-07-28T07:33:57.649Z,18.95
2017-07-28T07:34:57.717Z,18.93
2017-07-28T07:35:57.625Z,19.08
2017-07-28T07:36:57.910Z,19.08
2017-07-28T07:37:57.901Z,19.25
2017-07-28T07:38:57.583Z,19.21
2017-07-28T07:39:57.881Z,19.22
2017-07-28T07:40:57.850Z,19.15
2017-07-28T07:41:57.843Z,19.3
2017-07-28T07:42:57.814Z,19.37
2017-07-28T07:43:57.811Z,19.28
2017-07-28T07:44:57.513Z,19.33
2017-07-28T07:45:57.782Z,19.26
2017-07-28T07:46:57.764Z,19.44
2017-07-28T07:47:57.452Z,19.21
2017-07-28T07:48:57.730Z,19.04
2017-07-28T07:49:57.724Z,18.99
2017-07-28T07:50:57.434Z,18.95
2017-07-28T07:51:57.690Z,19.02
2017-07-28T07:52:57.388Z,19.04
2017-07-28T07:53:57.673Z,19.08
2017-07-28T07:54:57.651Z,19.08
2017-07-28T07:55:57.640Z,19.06
2017-07-28T07:56:57.640Z,18.9
2017-07-28T07:57:57.297Z,18.85
2017-07-28T07:58:57.615Z,19.11
2017-07-28T07:59:57.584Z,19.33
2017-07-28T08:00:57.585Z,19.21
2017-07-28T08:01:57.554Z,19.15
2017-07-28T08:02:57.543Z,19.36
2017-07-28T08:03:57.232Z,19.41
2017-07-28T08:04:57.214Z,19.46
2017-07-28T08:05:57.517Z,19.48
2017-07-28T08:06:57.162Z,19.38
2017-07-28T08:07:57.212Z,19.43
2017-07-28T08:08:57.462Z,19.34
2017-07-28T08:09:57.223Z,19.3
2017-07-28T08:10:57.124Z,19.21
2017-07-28T08:11:57.410Z,19
2017-07-28T08:12:57.403Z,19.06
2017-07-28T08:13:57.082Z,19.11
2017-07-28T08:14:57.359Z,19.12
2017-07-28T08:15:56.742Z,19.08
2017-07-28T08:16:57.023Z,19.07
2017-07-28T08:17:56.712Z,18.99
2017-07-28T08:18:57.288Z,18.99
2017-07-28T08:19:57.313Z,19.11
2017-07-28T08:20:57.379Z,19.18
2017-07-28T08:21:57.260Z,19.26
2017-07-28T08:22:56.647Z,19.48
2017-07-28T08:23:57.232Z,19.58
2017-07-28T08:24:57.312Z,19.62
2017-07-28T08:25:57.222Z,19.71
2017-07-28T08:26:57.224Z,19.69
2017-07-28T08:27:56.902Z,19.71
2017-07-28T08:28:57.219Z,19.34
2017-07-28T08:29:57.142Z,19.23
2017-07-28T08:30:57.143Z,19.28
2017-07-28T08:31:57.131Z,19.38
2017-07-28T08:32:57.202Z,19.38
2017-07-28T08:33:56.778Z,19.34
2017-07-28T08:34:56.793Z,19.51
2017-07-28T08:35:57.069Z,19.59
2017-07-28T08:36:56.742Z,19.69
2017-07-28T08:37:57.031Z,19.81
2017-07-28T08:38:56.742Z,19.95
2017-07-28T08:39:57.023Z,19.77
2017-07-28T08:40:56.993Z,19.67
2017-07-28T08:41:56.982Z,19.73
2017-07-28T08:42:56.963Z,19.69
2017-07-28T08:43:56.662Z,19.77
2017-07-28T08:44:56.630Z,19.71
2017-07-28T08:45:56.613Z,19.71
2017-07-28T08:46:56.913Z,19.71
2017-07-28T08:47:56.902Z,19.74
2017-07-28T08:48:56.568Z,19.8
2017-07-28T08:49:56.883Z,19.81
2017-07-28T08:50:56.554Z,19.76
2017-07-28T08:51:56.230Z,19.73
2017-07-28T08:52:56.510Z,19.81
2017-07-28T08:53:56.513Z,19.96
2017-07-28T08:54:56.805Z,20.1
2017-07-28T08:55:56.481Z,19.95
2017-07-28T08:56:56.764Z,20.1
2017-07-28T08:57:56.755Z,20.03
2017-07-28T08:58:56.762Z,20.08
2017-07-28T08:59:56.742Z,20.14
2017-07-28T09:00:56.714Z,20.25
2017-07-28T09:01:56.694Z,20.28
2017-07-28T09:02:56.382Z,20.25
2017-07-28T09:03:56.670Z,20.18
2017-07-28T09:04:56.654Z,20.14
2017-07-28T09:05:56.655Z,20.06
2017-07-28T09:06:56.035Z,20.11
2017-07-28T09:07:56.314Z,20.17
2017-07-28T09:08:56.614Z,20.4
2017-07-28T09:09:56.292Z,20.47
2017-07-28T09:10:56.282Z,20.57
2017-07-28T09:11:56.580Z,20.67
2017-07-28T09:12:55.959Z,21
2017-07-28T09:13:56.234Z,21.25
2017-07-28T09:14:56.535Z,21.04
2017-07-28T09:15:56.528Z,20.73
2017-07-28T09:16:56.525Z,20.94
2017-07-28T09:17:56.504Z,21.24
2017-07-28T09:18:56.477Z,21.28
2017-07-28T09:19:56.164Z,21.43
2017-07-28T09:20:56.483Z,21.73
2017-07-28T09:21:56.461Z,21.44
2017-07-28T09:22:55.824Z,21.43
2017-07-28T09:23:56.419Z,21.88
2017-07-28T09:24:56.412Z,22.11
2017-07-28T09:25:56.403Z,22.03
2017-07-28T09:26:55.794Z,21.66
2017-07-28T09:27:56.384Z,21.39
2017-07-28T09:28:56.365Z,21.28
2017-07-28T09:29:56.057Z,21.04
2017-07-28T09:30:56.043Z,21.02
2017-07-28T09:31:56.355Z,21.17
2017-07-28T09:32:56.334Z,21.58
2017-07-28T09:33:56.414Z,21.86
2017-07-28T09:34:56.014Z,21.92
2017-07-28T09:35:56.001Z,22.24
2017-07-28T09:36:56.284Z,22.3
2017-07-28T09:37:56.076Z,22.37
2017-07-28T09:38:56.284Z,22.42
2017-07-28T09:39:55.778Z,22.45
2017-07-28T09:40:56.014Z,22.52
2017-07-28T09:41:55.721Z,22.32
2017-07-28T09:42:55.995Z,22.37
2017-07-28T09:43:55.972Z,21.76
2017-07-28T09:44:55.907Z,21.66
2017-07-28T09:45:55.944Z,21.7
2017-07-28T09:46:55.885Z,21.5
2017-07-28T09:47:55.932Z,21.66
2017-07-28T09:48:55.875Z,21.76
2017-07-28T09:49:55.870Z,21.86
2017-07-28T09:50:55.544Z,22.02
2017-07-28T09:51:56.192Z,22.11
2017-07-28T09:52:56.137Z,22.35
2017-07-28T09:53:56.123Z,22.51
2017-07-28T09:54:55.813Z,22.62
2017-07-28T09:55:55.817Z,22.76
2017-07-28T09:56:55.796Z,23.03
2017-07-28T09:57:56.139Z,23.47
2017-07-28T09:58:55.764Z,23.96
2017-07-28T09:59:56.073Z,23.75
2017-07-28T10:00:56.066Z,23.77
2017-07-28T10:01:55.753Z,23.81
2017-07-28T10:02:55.751Z,23.75
2017-07-28T10:03:56.044Z,23.62
2017-07-28T10:04:55.723Z,23.6
2017-07-28T10:05:55.744Z,23.35
2017-07-28T10:06:55.732Z,23.48
2017-07-28T10:07:56.006Z,23.24
2017-07-28T10:08:55.675Z,22.95
2017-07-28T10:09:55.674Z,23.17
2017-07-28T10:10:55.664Z,23.38
2017-07-28T10:11:55.666Z,23.62
2017-07-28T10:12:55.953Z,23.4
2017-07-28T10:13:55.646Z,23.45
2017-07-28T10:14:55.934Z,23.63
2017-07-28T10:15:55.632Z,23.89
2017-07-28T10:16:55.624Z,23.97
2017-07-28T10:17:55.929Z,24.46
2017-07-28T10:18:55.905Z,24.57
2017-07-28T10:19:55.585Z,24.24
2017-07-28T10:20:55.584Z,24.12
2017-07-28T10:21:55.275Z,24.14
2017-07-28T10:22:55.873Z,23.97
2017-07-28T10:23:55.945Z,24.24
2017-07-28T10:24:55.857Z,24.18
2017-07-28T10:25:55.855Z,23.88
2017-07-28T10:26:55.535Z,23.8
2017-07-28T10:27:55.923Z,23.66
2017-07-28T10:28:55.837Z,23.52
2017-07-28T10:29:55.513Z,23.97
2017-07-28T10:30:55.491Z,24.09
2017-07-28T10:31:55.523Z,24.17
2017-07-28T10:32:55.774Z,24.39
2017-07-28T10:33:55.477Z,24.37
2017-07-28T10:34:55.465Z,24.34
2017-07-28T10:35:55.452Z,24.02
2017-07-28T10:36:55.434Z,23.32
2017-07-28T10:37:55.724Z,23.33
2017-07-28T10:38:55.425Z,23.55
2017-07-28T10:39:55.742Z,23.78
2017-07-28T10:40:55.706Z,23.72
2017-07-28T10:41:55.691Z,23.69
2017-07-28T10:42:55.697Z,23.73
2017-07-28T10:43:55.366Z,23.29
2017-07-28T10:44:55.366Z,23.27
2017-07-28T10:45:55.352Z,23.35
2017-07-28T10:46:55.351Z,23.7
2017-07-28T10:47:55.334Z,23.97
2017-07-28T10:48:55.326Z,24.47
2017-07-28T10:49:55.608Z,24.93
2017-07-28T10:50:55.296Z,25.3
2017-07-28T10:51:55.590Z,25.27
2017-07-28T10:52:55.587Z,25.34
2017-07-28T10:53:55.272Z,25.15
2017-07-28T10:54:55.556Z,24.9
2017-07-28T10:55:55.565Z,24.9
2017-07-28T10:56:55.574Z,24.36
2017-07-28T10:57:55.531Z,24.18
2017-07-28T10:58:55.218Z,24.12
2017-07-28T10:59:55.513Z,24.06
2017-07-28T11:00:55.514Z,23.8
2017-07-28T11:01:55.493Z,23.72
2017-07-28T11:02:55.503Z,23.69
2017-07-28T11:03:55.472Z,23.25
2017-07-28T11:04:55.463Z,22.97
2017-07-28T11:05:55.449Z,23.04
2017-07-28T11:06:55.449Z,23.25
2017-07-28T11:07:55.123Z,23.22
2017-07-28T11:08:55.434Z,22.74
2017-07-28T11:09:55.424Z,22.66
2017-07-28T11:10:55.433Z,22.59
2017-07-28T11:11:55.384Z,22.7
2017-07-28T11:12:55.375Z,22.89
2017-07-28T11:13:55.368Z,22.94
2017-07-28T11:14:55.045Z,23.06
2017-07-28T11:15:55.356Z,23.22
2017-07-28T11:16:54.721Z,23.28
2017-07-28T11:17:55.323Z,23.09
2017-07-28T11:18:55.314Z,22.91
2017-07-28T11:19:55.328Z,22.59
2017-07-28T11:20:55.297Z,22.65
2017-07-28T11:21:55.295Z,22.76
2017-07-28T11:22:55.263Z,22.65
2017-07-28T11:23:55.264Z,22.59
2017-07-28T11:24:55.233Z,22.62
2017-07-28T11:25:54.640Z,22.51
2017-07-28T11:26:54.914Z,22.59
2017-07-28T11:27:55.205Z,22.33
2017-07-28T11:28:54.903Z,22.51
2017-07-28T11:29:55.184Z,22.35
2017-07-28T11:30:55.172Z,22.24
2017-07-28T11:31:55.176Z,22.18
2017-07-28T11:32:55.164Z,22.37
2017-07-28T11:33:55.150Z,22.35
2017-07-28T11:34:55.144Z,22.21
2017-07-28T11:35:55.117Z,21.92
2017-07-28T11:36:55.110Z,21.71
2017-07-28T11:37:54.833Z,21.7
2017-07-28T11:38:55.099Z,21.8
2017-07-28T11:39:54.752Z,21.79
2017-07-28T11:40:55.052Z,21.88
2017-07-28T11:41:54.744Z,21.71
2017-07-28T11:42:54.730Z,21.83
2017-07-28T11:43:55.034Z,21.88
2017-07-28T11:44:54.704Z,21.66
2017-07-28T11:45:54.694Z,21.41
2017-07-28T11:46:54.673Z,21.36
2017-07-28T11:47:54.683Z,21.19
2017-07-28T11:48:54.641Z,21.17
2017-07-28T11:49:54.951Z,21.02
2017-07-28T11:50:54.923Z,21.04
2017-07-28T11:51:54.314Z,20.91
2017-07-28T11:52:54.293Z,20.94
2017-07-28T11:53:54.919Z,21.02
2017-07-28T11:54:54.884Z,21.06
2017-07-28T11:55:54.570Z,21.1
2017-07-28T11:56:54.874Z,21.25
2017-07-28T11:57:54.832Z,21.26
2017-07-28T11:58:54.824Z,21.26
2017-07-28T11:59:54.804Z,21.28
2017-07-28T12:00:54.804Z,21.39
2017-07-28T12:01:54.781Z,21.62
2017-07-28T12:02:54.761Z,21.59
2017-07-28T12:03:54.758Z,21.86
2017-07-28T12:04:54.748Z,22.03
2017-07-28T12:05:54.418Z,21.99
2017-07-28T12:06:54.713Z,22.1
2017-07-28T12:07:54.722Z,22.21
2017-07-28T12:08:54.396Z,22.3
2017-07-28T12:09:54.362Z,22.35
2017-07-28T12:10:54.665Z,22.24
2017-07-28T12:11:54.670Z,22.22
2017-07-28T12:12:54.635Z,22.05
2017-07-28T12:13:54.322Z,21.66
2017-07-28T12:14:54.412Z,21.41
2017-07-28T12:15:54.357Z,21.43
2017-07-28T12:16:54.305Z,21.49
2017-07-28T12:17:54.576Z,21.74
2017-07-28T12:18:54.562Z,21.83
2017-07-28T12:19:54.313Z,22
2017-07-28T12:20:53.983Z,22.2
2017-07-28T12:21:54.284Z,22.3
2017-07-28T12:22:53.913Z,22.45
2017-07-28T12:23:54.215Z,22.43
2017-07-28T12:24:54.490Z,22.51
2017-07-28T12:25:54.182Z,22.51
2017-07-28T12:26:54.161Z,22.62
2017-07-28T12:27:54.543Z,22.33
2017-07-28T12:28:54.448Z,22.08
2017-07-28T12:29:54.501Z,22.08
2017-07-28T12:30:54.424Z,22.21
2017-07-28T12:31:54.116Z,22.42
2017-07-28T12:32:54.192Z,22.62
2017-07-28T12:33:54.142Z,22.95
2017-07-28T12:34:54.139Z,23.29
2017-07-28T12:35:54.052Z,23.47
2017-07-28T12:36:54.144Z,23.27
2017-07-28T12:37:54.135Z,23.12
2017-07-28T12:38:54.360Z,23.29
2017-07-28T12:39:54.013Z,23.42
2017-07-28T12:40:54.015Z,23.44
2017-07-28T12:41:54.345Z,23.72
2017-07-28T12:42:54.271Z,23.67
2017-07-28T12:43:54.283Z,23.54
2017-07-28T12:44:53.962Z,23.47
2017-07-28T12:45:53.961Z,23.03
2017-07-28T12:46:54.298Z,23.04
2017-07-28T12:47:53.914Z,22.91
2017-07-28T12:48:54.266Z,23.09
2017-07-28T12:49:54.226Z,23.36
2017-07-28T12:50:53.883Z,23.42
2017-07-28T12:51:54.242Z,22.92
2017-07-28T12:52:53.565Z,23.04
2017-07-28T12:53:54.156Z,22.97
2017-07-28T12:54:54.151Z,23.06